sensor_id;sensor_type;location;lat;lon;timestamp;temperature;humidity
23160;DHT22;11748;50.844;4.396;2023-01-15T00:00:24;9.60;99.90
23160;DHT22;11748;50.844;4.396;2023-01-15T00:02:50;9.60;99.90
23160;DHT22;11748;50.844;4.396;2023-01-15T00:05:16;9.70;99.90
23160;DHT22;11748;50.844;4.396;2023-01-15T00:07:42;9.60;99.90
23160;DHT22;11748;50.844;4.396;2023-01-15T00:10:09;9.50;99.90
23160;DHT22;11748;50.844;4.396;2023-01-15T00:12:34;9.50;99.90
23160;DHT22;11748;50.844;4.396;2023-01-15T00:15:00;9.50;99.90
23160;DHT22;11748;50.844;4.396;2023-01-15T00:17:26;9.60;99.90
23160;DHT22;11748;50.844;4.396;2023-01-15T00:19:51;9.60;99.90
23160;DHT22;11748;50.844;4.396;2023-01-15T00:22:17;9.50;99.90
23160;DHT22;11748;50.844;4.396;2023-01-15T00:24:43;9.50;99.90
23160;DHT22;11748;50.844;4.396;2023-01-15T00:27:28;9.50;99.90
23160;DHT22;11748;50.844;4.396;2023-01-15T00:30:03;9.50;99.90
23160;DHT22;11748;50.844;4.396;2023-01-15T00:32:29;9.60;99.90
23160;DHT22;11748;50.844;4.396;2023-01-15T00:34:57;9.50;99.90
23160;DHT22;11748;50.844;4.396;2023-01-15T00:37:22;9.50;99.90
23160;DHT22;11748;50.844;4.396;2023-01-15T00:39:48;9.50;99.90
23160;DHT22;11748;50.844;4.396;2023-01-15T00:42:14;9.50;99.90
23160;DHT22;11748;50.844;4.396;2023-01-15T00:44:40;9.50;99.90
23160;DHT22;11748;50.844;4.396;2023-01-15T00:47:07;9.50;99.90
23160;DHT22;11748;50.844;4.396;2023-01-15T00:49:38;9.50;99.90
23160;DHT22;11748;50.844;4.396;2023-01-15T00:52:04;9.50;99.90
23160;DHT22;11748;50.844;4.396;2023-01-15T00:54:30;9.40;99.90
23160;DHT22;11748;50.844;4.396;2023-01-15T00:56:57;9.40;99.90
23160;DHT22;11748;50.844;4.396;2023-01-15T00:59:23;9.60;99.90
23160;DHT22;11748;50.844;4.396;2023-01-15T01:01:49;9.70;99.90
23160;DHT22;11748;50.844;4.396;2023-01-15T01:04:15;9.60;99.90
23160;DHT22;11748;50.844;4.396;2023-01-15T01:06:40;9.70;99.90
23160;DHT22;11748;50.844;4.396;2023-01-15T01:09:06;9.60;99.90
23160;DHT22;11748;50.844;4.396;2023-01-15T01:11:32;9.60;99.90
23160;DHT22;11748;50.844;4.396;2023-01-15T01:14:00;9.50;99.90
23160;DHT22;11748;50.844;4.396;2023-01-15T01:18:59;9.50;99.90
23160;DHT22;11748;50.844;4.396;2023-01-15T01:21:26;9.40;99.90
23160;DHT22;11748;50.844;4.396;2023-01-15T01:23:52;9.30;99.90
23160;DHT22;11748;50.844;4.396;2023-01-15T01:26:19;9.30;99.90
23160;DHT22;11748;50.844;4.396;2023-01-15T01:28:52;9.20;99.90
23160;DHT22;11748;50.844;4.396;2023-01-15T01:31:18;9.30;99.90
23160;DHT22;11748;50.844;4.396;2023-01-15T01:33:48;9.40;99.90
23160;DHT22;11748;50.844;4.396;2023-01-15T01:36:14;9.50;99.90
23160;DHT22;11748;50.844;4.396;2023-01-15T01:38:40;9.50;99.90
23160;DHT22;11748;50.844;4.396;2023-01-15T01:41:06;9.40;99.90
23160;DHT22;11748;50.844;4.396;2023-01-15T01:46:39;9.60;99.90
23160;DHT22;11748;50.844;4.396;2023-01-15T01:49:10;9.70;99.90
23160;DHT22;11748;50.844;4.396;2023-01-15T01:51:40;9.50;99.90
23160;DHT22;11748;50.844;4.396;2023-01-15T01:54:09;9.30;99.90
23160;DHT22;11748;50.844;4.396;2023-01-15T01:56:35;9.30;99.90
23160;DHT22;11748;50.844;4.396;2023-01-15T01:59:03;9.20;99.90
23160;DHT22;11748;50.844;4.396;2023-01-15T02:01:30;9.30;99.90
23160;DHT22;11748;50.844;4.396;2023-01-15T02:03:56;9.40;99.90
23160;DHT22;11748;50.844;4.396;2023-01-15T02:06:23;9.50;99.90
23160;DHT22;11748;50.844;4.396;2023-01-15T02:08:50;9.30;99.90
23160;DHT22;11748;50.844;4.396;2023-01-15T02:11:19;9.20;99.90
23160;DHT22;11748;50.844;4.396;2023-01-15T02:13:58;9.00;99.90
23160;DHT22;11748;50.844;4.396;2023-01-15T02:16:47;9.10;99.90
23160;DHT22;11748;50.844;4.396;2023-01-15T02:19:55;9.20;99.90
23160;DHT22;11748;50.844;4.396;2023-01-15T02:28:34;9.20;99.90
23160;DHT22;11748;50.844;4.396;2023-01-15T02:34:07;8.90;99.90
23160;DHT22;11748;50.844;4.396;2023-01-15T02:36:37;8.90;99.90
23160;DHT22;11748;50.844;4.396;2023-01-15T02:39:07;8.90;99.90
23160;DHT22;11748;50.844;4.396;2023-01-15T02:41:38;9.00;99.90
23160;DHT22;11748;50.844;4.396;2023-01-15T02:44:07;8.90;99.90
23160;DHT22;11748;50.844;4.396;2023-01-15T02:46:35;8.80;99.90
23160;DHT22;11748;50.844;4.396;2023-01-15T02:49:04;8.70;99.90
23160;DHT22;11748;50.844;4.396;2023-01-15T02:51:37;8.70;99.90
23160;DHT22;11748;50.844;4.396;2023-01-15T02:54:08;8.60;99.90
23160;DHT22;11748;50.844;4.396;2023-01-15T02:56:36;8.60;99.90
23160;DHT22;11748;50.844;4.396;2023-01-15T02:59:13;8.70;99.90
23160;DHT22;11748;50.844;4.396;2023-01-15T03:01:43;8.90;99.90
23160;DHT22;11748;50.844;4.396;2023-01-15T03:04:19;9.00;99.90
23160;DHT22;11748;50.844;4.396;2023-01-15T03:07:04;9.00;99.90
23160;DHT22;11748;50.844;4.396;2023-01-15T03:09:31;9.00;99.90
23160;DHT22;11748;50.844;4.396;2023-01-15T03:12:23;8.90;99.90
23160;DHT22;11748;50.844;4.396;2023-01-15T03:15:13;8.70;99.90
23160;DHT22;11748;50.844;4.396;2023-01-15T03:17:56;8.80;99.90
23160;DHT22;11748;50.844;4.396;2023-01-15T03:20:27;8.80;99.90
23160;DHT22;11748;50.844;4.396;2023-01-15T03:22:58;8.70;99.90
23160;DHT22;11748;50.844;4.396;2023-01-15T03:25:35;8.60;99.90
23160;DHT22;11748;50.844;4.396;2023-01-15T03:28:04;8.70;99.90
23160;DHT22;11748;50.844;4.396;2023-01-15T03:30:32;8.70;99.90
23160;DHT22;11748;50.844;4.396;2023-01-15T03:32:58;8.80;99.90
23160;DHT22;11748;50.844;4.396;2023-01-15T03:38:04;8.70;99.90
23160;DHT22;11748;50.844;4.396;2023-01-15T03:40:32;8.60;99.90
23160;DHT22;11748;50.844;4.396;2023-01-15T03:43:05;8.50;99.90
23160;DHT22;11748;50.844;4.396;2023-01-15T03:45:53;8.50;99.90
23160;DHT22;11748;50.844;4.396;2023-01-15T03:49:03;8.60;99.90
23160;DHT22;11748;50.844;4.396;2023-01-15T03:54:24;8.60;99.90
23160;DHT22;11748;50.844;4.396;2023-01-15T03:57:06;8.50;99.90
23160;DHT22;11748;50.844;4.396;2023-01-15T03:59:55;8.50;99.90
23160;DHT22;11748;50.844;4.396;2023-01-15T04:02:26;8.50;99.90
23160;DHT22;11748;50.844;4.396;2023-01-15T04:04:54;8.30;99.90
23160;DHT22;11748;50.844;4.396;2023-01-15T04:07:21;8.50;99.90
23160;DHT22;11748;50.844;4.396;2023-01-15T04:09:47;8.60;99.90
23160;DHT22;11748;50.844;4.396;2023-01-15T04:12:13;8.70;99.90
23160;DHT22;11748;50.844;4.396;2023-01-15T04:14:38;8.50;99.90
23160;DHT22;11748;50.844;4.396;2023-01-15T04:17:04;8.50;99.90
23160;DHT22;11748;50.844;4.396;2023-01-15T04:19:30;8.40;99.90
23160;DHT22;11748;50.844;4.396;2023-01-15T04:21:56;8.40;99.90
23160;DHT22;11748;50.844;4.396;2023-01-15T04:24:21;8.30;99.90
23160;DHT22;11748;50.844;4.396;2023-01-15T04:26:47;8.20;99.90
23160;DHT22;11748;50.844;4.396;2023-01-15T04:29:13;8.20;99.90
23160;DHT22;11748;50.844;4.396;2023-01-15T04:31:39;8.20;99.90
23160;DHT22;11748;50.844;4.396;2023-01-15T04:34:04;8.10;99.90
23160;DHT22;11748;50.844;4.396;2023-01-15T04:36:30;8.10;99.90
23160;DHT22;11748;50.844;4.396;2023-01-15T04:39:00;8.20;99.90
23160;DHT22;11748;50.844;4.396;2023-01-15T04:41:26;8.20;99.90
23160;DHT22;11748;50.844;4.396;2023-01-15T04:44:10;8.20;99.90
23160;DHT22;11748;50.844;4.396;2023-01-15T04:46:38;8.20;99.90
23160;DHT22;11748;50.844;4.396;2023-01-15T04:49:06;8.20;99.90
23160;DHT22;11748;50.844;4.396;2023-01-15T04:51:33;8.20;99.90
23160;DHT22;11748;50.844;4.396;2023-01-15T04:54:01;8.20;99.90
23160;DHT22;11748;50.844;4.396;2023-01-15T04:56:27;8.20;99.90
23160;DHT22;11748;50.844;4.396;2023-01-15T04:58:53;8.20;99.90
23160;DHT22;11748;50.844;4.396;2023-01-15T05:01:18;8.20;99.90
23160;DHT22;11748;50.844;4.396;2023-01-15T05:03:46;8.20;99.90
23160;DHT22;11748;50.844;4.396;2023-01-15T05:06:12;8.10;99.90
23160;DHT22;11748;50.844;4.396;2023-01-15T05:08:39;8.10;99.90
23160;DHT22;11748;50.844;4.396;2023-01-15T05:11:05;8.00;99.90
23160;DHT22;11748;50.844;4.396;2023-01-15T05:13:32;8.10;99.90
23160;DHT22;11748;50.844;4.396;2023-01-15T05:18:38;8.20;99.90
23160;DHT22;11748;50.844;4.396;2023-01-15T05:21:04;8.00;99.90
23160;DHT22;11748;50.844;4.396;2023-01-15T05:23:30;8.00;99.90
23160;DHT22;11748;50.844;4.396;2023-01-15T05:25:56;7.90;99.90
23160;DHT22;11748;50.844;4.396;2023-01-15T05:28:22;7.90;99.90
23160;DHT22;11748;50.844;4.396;2023-01-15T05:30:47;7.90;99.90
23160;DHT22;11748;50.844;4.396;2023-01-15T05:33:13;7.90;99.90
23160;DHT22;11748;50.844;4.396;2023-01-15T05:35:39;7.90;99.90
23160;DHT22;11748;50.844;4.396;2023-01-15T05:38:04;8.10;99.90
23160;DHT22;11748;50.844;4.396;2023-01-15T05:40:31;8.00;99.90
23160;DHT22;11748;50.844;4.396;2023-01-15T05:42:58;8.00;99.90
23160;DHT22;11748;50.844;4.396;2023-01-15T05:45:24;8.00;99.90
23160;DHT22;11748;50.844;4.396;2023-01-15T05:47:52;8.00;99.90
23160;DHT22;11748;50.844;4.396;2023-01-15T05:50:18;8.00;99.90
23160;DHT22;11748;50.844;4.396;2023-01-15T05:52:43;8.00;99.90
23160;DHT22;11748;50.844;4.396;2023-01-15T05:55:09;7.90;99.90
23160;DHT22;11748;50.844;4.396;2023-01-15T05:57:35;7.90;99.90
23160;DHT22;11748;50.844;4.396;2023-01-15T06:00:01;7.80;99.90
23160;DHT22;11748;50.844;4.396;2023-01-15T06:02:26;7.80;99.90
23160;DHT22;11748;50.844;4.396;2023-01-15T06:04:52;7.70;99.90
23160;DHT22;11748;50.844;4.396;2023-01-15T06:07:18;7.60;99.90
23160;DHT22;11748;50.844;4.396;2023-01-15T06:09:43;7.50;99.90
23160;DHT22;11748;50.844;4.396;2023-01-15T06:12:09;7.60;99.90
23160;DHT22;11748;50.844;4.396;2023-01-15T06:14:35;7.40;99.90
23160;DHT22;11748;50.844;4.396;2023-01-15T06:17:01;7.20;99.90
23160;DHT22;11748;50.844;4.396;2023-01-15T06:19:26;7.00;99.90
23160;DHT22;11748;50.844;4.396;2023-01-15T06:21:52;6.90;99.90
23160;DHT22;11748;50.844;4.396;2023-01-15T06:24:18;6.80;99.90
23160;DHT22;11748;50.844;4.396;2023-01-15T06:26:44;6.70;99.90
23160;DHT22;11748;50.844;4.396;2023-01-15T06:29:10;6.80;99.90
23160;DHT22;11748;50.844;4.396;2023-01-15T06:31:36;6.80;99.90
23160;DHT22;11748;50.844;4.396;2023-01-15T06:34:02;6.90;99.90
23160;DHT22;11748;50.844;4.396;2023-01-15T06:36:28;6.80;99.90
23160;DHT22;11748;50.844;4.396;2023-01-15T06:38:53;6.80;99.90
23160;DHT22;11748;50.844;4.396;2023-01-15T06:41:22;6.90;99.90
23160;DHT22;11748;50.844;4.396;2023-01-15T06:44:13;6.90;99.90
23160;DHT22;11748;50.844;4.396;2023-01-15T06:47:18;6.90;99.90
23160;DHT22;11748;50.844;4.396;2023-01-15T06:49:45;6.80;99.90
23160;DHT22;11748;50.844;4.396;2023-01-15T06:52:11;6.80;99.90
23160;DHT22;11748;50.844;4.396;2023-01-15T06:54:36;6.90;99.90
23160;DHT22;11748;50.844;4.396;2023-01-15T06:57:02;6.90;99.90
23160;DHT22;11748;50.844;4.396;2023-01-15T06:59:28;6.90;99.90
23160;DHT22;11748;50.844;4.396;2023-01-15T07:01:54;6.90;99.90
23160;DHT22;11748;50.844;4.396;2023-01-15T07:04:20;6.90;99.90
23160;DHT22;11748;50.844;4.396;2023-01-15T07:06:46;6.90;99.90
23160;DHT22;11748;50.844;4.396;2023-01-15T07:09:11;6.90;99.90
23160;DHT22;11748;50.844;4.396;2023-01-15T07:11:43;6.90;99.90
23160;DHT22;11748;50.844;4.396;2023-01-15T07:14:16;6.80;99.90
23160;DHT22;11748;50.844;4.396;2023-01-15T07:16:42;6.80;99.90
23160;DHT22;11748;50.844;4.396;2023-01-15T07:19:08;6.90;99.90
23160;DHT22;11748;50.844;4.396;2023-01-15T07:21:34;6.90;99.90
23160;DHT22;11748;50.844;4.396;2023-01-15T07:24:00;6.90;99.90
23160;DHT22;11748;50.844;4.396;2023-01-15T07:26:26;6.80;99.90
23160;DHT22;11748;50.844;4.396;2023-01-15T07:28:52;6.70;99.90
23160;DHT22;11748;50.844;4.396;2023-01-15T07:31:18;6.70;99.90
23160;DHT22;11748;50.844;4.396;2023-01-15T07:33:44;6.70;99.90
23160;DHT22;11748;50.844;4.396;2023-01-15T07:36:10;6.80;99.90
23160;DHT22;11748;50.844;4.396;2023-01-15T07:38:36;6.80;99.90
23160;DHT22;11748;50.844;4.396;2023-01-15T07:41:01;6.80;99.90
23160;DHT22;11748;50.844;4.396;2023-01-15T07:43:50;6.80;99.90
23160;DHT22;11748;50.844;4.396;2023-01-15T07:46:34;6.80;99.90
23160;DHT22;11748;50.844;4.396;2023-01-15T07:49:19;6.80;99.90
23160;DHT22;11748;50.844;4.396;2023-01-15T07:52:04;6.80;99.90
23160;DHT22;11748;50.844;4.396;2023-01-15T07:54:29;6.70;99.90
23160;DHT22;11748;50.844;4.396;2023-01-15T07:56:55;6.80;99.90
23160;DHT22;11748;50.844;4.396;2023-01-15T07:59:21;6.80;99.90
23160;DHT22;11748;50.844;4.396;2023-01-15T08:01:47;7.00;99.90
23160;DHT22;11748;50.844;4.396;2023-01-15T08:04:13;7.10;99.90
23160;DHT22;11748;50.844;4.396;2023-01-15T08:06:38;7.00;99.90
23160;DHT22;11748;50.844;4.396;2023-01-15T08:09:04;6.90;99.90
23160;DHT22;11748;50.844;4.396;2023-01-15T08:11:32;6.80;99.90
23160;DHT22;11748;50.844;4.396;2023-01-15T08:14:18;6.90;99.90
23160;DHT22;11748;50.844;4.396;2023-01-15T08:17:03;7.00;99.90
23160;DHT22;11748;50.844;4.396;2023-01-15T08:19:29;6.90;99.90
23160;DHT22;11748;50.844;4.396;2023-01-15T08:21:58;6.90;99.90
23160;DHT22;11748;50.844;4.396;2023-01-15T08:24:27;6.90;99.90
23160;DHT22;11748;50.844;4.396;2023-01-15T08:26:53;7.00;99.90
23160;DHT22;11748;50.844;4.396;2023-01-15T08:29:20;6.90;99.90
23160;DHT22;11748;50.844;4.396;2023-01-15T08:31:47;6.80;99.90
23160;DHT22;11748;50.844;4.396;2023-01-15T08:34:13;6.70;99.90
23160;DHT22;11748;50.844;4.396;2023-01-15T08:36:40;6.80;99.90
23160;DHT22;11748;50.844;4.396;2023-01-15T08:39:06;6.80;99.90
23160;DHT22;11748;50.844;4.396;2023-01-15T08:41:33;6.90;99.90
23160;DHT22;11748;50.844;4.396;2023-01-15T08:43:58;7.00;99.90
23160;DHT22;11748;50.844;4.396;2023-01-15T08:46:24;7.10;99.90
23160;DHT22;11748;50.844;4.396;2023-01-15T08:48:50;7.00;99.90
23160;DHT22;11748;50.844;4.396;2023-01-15T08:51:15;7.00;99.90
23160;DHT22;11748;50.844;4.396;2023-01-15T08:53:41;7.00;99.90
23160;DHT22;11748;50.844;4.396;2023-01-15T08:56:18;7.00;99.90
23160;DHT22;11748;50.844;4.396;2023-01-15T08:58:45;7.20;99.90
23160;DHT22;11748;50.844;4.396;2023-01-15T09:01:12;7.10;99.90
23160;DHT22;11748;50.844;4.396;2023-01-15T09:03:41;7.20;99.90
23160;DHT22;11748;50.844;4.396;2023-01-15T09:06:07;7.20;99.90
23160;DHT22;11748;50.844;4.396;2023-01-15T09:08:33;7.40;99.90
23160;DHT22;11748;50.844;4.396;2023-01-15T09:11:00;7.20;99.90
23160;DHT22;11748;50.844;4.396;2023-01-15T09:13:28;7.00;99.90
23160;DHT22;11748;50.844;4.396;2023-01-15T09:15:58;7.00;99.90
23160;DHT22;11748;50.844;4.396;2023-01-15T09:18:24;6.90;99.90
23160;DHT22;11748;50.844;4.396;2023-01-15T09:20:50;6.90;99.90
23160;DHT22;11748;50.844;4.396;2023-01-15T09:23:15;7.00;99.90
23160;DHT22;11748;50.844;4.396;2023-01-15T09:25:53;6.90;99.90
23160;DHT22;11748;50.844;4.396;2023-01-15T09:28:19;7.00;99.90
23160;DHT22;11748;50.844;4.396;2023-01-15T09:30:45;7.00;99.90
23160;DHT22;11748;50.844;4.396;2023-01-15T09:33:11;7.00;99.90
23160;DHT22;11748;50.844;4.396;2023-01-15T09:35:38;7.00;99.90
23160;DHT22;11748;50.844;4.396;2023-01-15T09:38:04;6.90;99.90
23160;DHT22;11748;50.844;4.396;2023-01-15T09:43:13;7.30;99.90
23160;DHT22;11748;50.844;4.396;2023-01-15T09:51:29;7.10;99.90
23160;DHT22;11748;50.844;4.396;2023-01-15T09:56:41;7.30;99.90
23160;DHT22;11748;50.844;4.396;2023-01-15T09:59:34;7.30;99.90
23160;DHT22;11748;50.844;4.396;2023-01-15T10:02:11;7.40;99.90
23160;DHT22;11748;50.844;4.396;2023-01-15T10:04:58;7.40;99.90
23160;DHT22;11748;50.844;4.396;2023-01-15T10:07:32;7.50;99.90
23160;DHT22;11748;50.844;4.396;2023-01-15T10:10:03;7.30;99.90
23160;DHT22;11748;50.844;4.396;2023-01-15T10:12:31;7.40;99.90
23160;DHT22;11748;50.844;4.396;2023-01-15T10:17:43;7.50;99.90
23160;DHT22;11748;50.844;4.396;2023-01-15T10:23:28;7.50;99.90
23160;DHT22;11748;50.844;4.396;2023-01-15T10:26:13;7.40;99.90
23160;DHT22;11748;50.844;4.396;2023-01-15T10:45:19;7.30;99.90
23160;DHT22;11748;50.844;4.396;2023-01-15T10:47:52;7.20;99.90
23160;DHT22;11748;50.844;4.396;2023-01-15T10:50:21;7.40;99.90
23160;DHT22;11748;50.844;4.396;2023-01-15T10:56:07;7.40;99.90
23160;DHT22;11748;50.844;4.396;2023-01-15T10:58:47;7.50;99.90
23160;DHT22;11748;50.844;4.396;2023-01-15T11:01:17;7.60;99.90
23160;DHT22;11748;50.844;4.396;2023-01-15T11:03:46;7.70;99.90
23160;DHT22;11748;50.844;4.396;2023-01-15T11:06:20;7.80;99.90
23160;DHT22;11748;50.844;4.396;2023-01-15T11:08:55;8.00;99.90
23160;DHT22;11748;50.844;4.396;2023-01-15T11:11:37;7.80;99.90
23160;DHT22;11748;50.844;4.396;2023-01-15T11:14:36;7.80;99.90
23160;DHT22;11748;50.844;4.396;2023-01-15T11:17:23;7.80;99.90
23160;DHT22;11748;50.844;4.396;2023-01-15T11:20:21;7.90;99.90
23160;DHT22;11748;50.844;4.396;2023-01-15T11:22:49;7.90;99.90
23160;DHT22;11748;50.844;4.396;2023-01-15T11:25:28;7.80;99.90
23160;DHT22;11748;50.844;4.396;2023-01-15T11:27:54;7.90;99.90
23160;DHT22;11748;50.844;4.396;2023-01-15T11:30:34;8.10;99.90
23160;DHT22;11748;50.844;4.396;2023-01-15T11:33:05;8.00;99.90
23160;DHT22;11748;50.844;4.396;2023-01-15T11:35:33;8.20;99.90
23160;DHT22;11748;50.844;4.396;2023-01-15T11:38:10;8.20;99.90
23160;DHT22;11748;50.844;4.396;2023-01-15T11:40:37;8.10;99.90
23160;DHT22;11748;50.844;4.396;2023-01-15T11:43:14;8.10;99.90
23160;DHT22;11748;50.844;4.396;2023-01-15T11:46:00;7.90;99.90
23160;DHT22;11748;50.844;4.396;2023-01-15T11:48:46;8.10;99.90
23160;DHT22;11748;50.844;4.396;2023-01-15T11:51:39;8.00;99.90
23160;DHT22;11748;50.844;4.396;2023-01-15T11:54:10;8.10;99.90
23160;DHT22;11748;50.844;4.396;2023-01-15T11:56:41;8.10;99.90
23160;DHT22;11748;50.844;4.396;2023-01-15T11:59:13;8.20;99.90
23160;DHT22;11748;50.844;4.396;2023-01-15T12:04:35;8.20;99.90
23160;DHT22;11748;50.844;4.396;2023-01-15T12:07:04;8.10;99.90
23160;DHT22;11748;50.844;4.396;2023-01-15T12:12:26;8.20;99.90
23160;DHT22;11748;50.844;4.396;2023-01-15T12:23:15;8.40;99.90
23160;DHT22;11748;50.844;4.396;2023-01-15T12:31:16;8.40;99.90
23160;DHT22;11748;50.844;4.396;2023-01-15T12:36:50;8.30;99.90
23160;DHT22;11748;50.844;4.396;2023-01-15T12:41:53;8.30;99.90
23160;DHT22;11748;50.844;4.396;2023-01-15T12:44:50;8.40;99.90
23160;DHT22;11748;50.844;4.396;2023-01-15T12:53:10;8.60;99.90
23160;DHT22;11748;50.844;4.396;2023-01-15T12:56:27;8.50;99.90
23160;DHT22;11748;50.844;4.396;2023-01-15T12:59:02;8.60;99.90
23160;DHT22;11748;50.844;4.396;2023-01-15T13:12:34;8.80;99.90
23160;DHT22;11748;50.844;4.396;2023-01-15T13:15:02;8.80;99.90
23160;DHT22;11748;50.844;4.396;2023-01-15T13:17:49;8.70;99.90
23160;DHT22;11748;50.844;4.396;2023-01-15T13:20:46;8.60;99.90
23160;DHT22;11748;50.844;4.396;2023-01-15T13:23:39;8.60;99.90
23160;DHT22;11748;50.844;4.396;2023-01-15T13:34:14;8.80;99.90
23160;DHT22;11748;50.844;4.396;2023-01-15T13:36:44;8.70;99.90
23160;DHT22;11748;50.844;4.396;2023-01-15T13:39:20;8.80;99.90
23160;DHT22;11748;50.844;4.396;2023-01-15T13:41:49;8.90;99.90
23160;DHT22;11748;50.844;4.396;2023-01-15T13:44:38;8.90;99.90
23160;DHT22;11748;50.844;4.396;2023-01-15T13:47:11;8.70;99.90
23160;DHT22;11748;50.844;4.396;2023-01-15T13:49:46;8.60;99.90
23160;DHT22;11748;50.844;4.396;2023-01-15T13:52:26;8.50;99.90
23160;DHT22;11748;50.844;4.396;2023-01-15T13:54:57;8.40;99.90
23160;DHT22;11748;50.844;4.396;2023-01-15T13:57:35;8.40;99.90
23160;DHT22;11748;50.844;4.396;2023-01-15T14:00:05;8.30;99.90
23160;DHT22;11748;50.844;4.396;2023-01-15T14:02:33;8.40;99.90
23160;DHT22;11748;50.844;4.396;2023-01-15T14:07:47;8.10;99.90
23160;DHT22;11748;50.844;4.396;2023-01-15T14:13:18;7.90;99.90
23160;DHT22;11748;50.844;4.396;2023-01-15T14:15:52;8.00;99.90
23160;DHT22;11748;50.844;4.396;2023-01-15T14:27:03;8.00;99.90
23160;DHT22;11748;50.844;4.396;2023-01-15T14:32:27;7.80;99.90
23160;DHT22;11748;50.844;4.396;2023-01-15T14:34:58;7.80;99.90
23160;DHT22;11748;50.844;4.396;2023-01-15T14:40:28;8.00;99.90
23160;DHT22;11748;50.844;4.396;2023-01-15T14:42:58;7.90;99.90
23160;DHT22;11748;50.844;4.396;2023-01-15T14:45:39;8.00;99.90
23160;DHT22;11748;50.844;4.396;2023-01-15T14:48:33;7.90;99.90
23160;DHT22;11748;50.844;4.396;2023-01-15T14:51:17;7.90;99.90
23160;DHT22;11748;50.844;4.396;2023-01-15T14:53:48;7.80;99.90
23160;DHT22;11748;50.844;4.396;2023-01-15T14:56:51;7.80;99.90
23160;DHT22;11748;50.844;4.396;2023-01-15T14:59:42;7.70;99.90
23160;DHT22;11748;50.844;4.396;2023-01-15T15:02:23;7.80;99.90
23160;DHT22;11748;50.844;4.396;2023-01-15T15:04:53;7.70;99.90
23160;DHT22;11748;50.844;4.396;2023-01-15T15:07:22;7.60;99.90
23160;DHT22;11748;50.844;4.396;2023-01-15T15:10:13;7.80;99.90
23160;DHT22;11748;50.844;4.396;2023-01-15T15:21:04;7.70;99.90
23160;DHT22;11748;50.844;4.396;2023-01-15T15:23:51;7.70;99.90
23160;DHT22;11748;50.844;4.396;2023-01-15T15:26:25;7.70;99.90
23160;DHT22;11748;50.844;4.396;2023-01-15T15:31:36;7.70;99.90
23160;DHT22;11748;50.844;4.396;2023-01-15T15:34:05;7.80;99.90
23160;DHT22;11748;50.844;4.396;2023-01-15T15:36:34;7.80;99.90
23160;DHT22;11748;50.844;4.396;2023-01-15T15:41:44;7.80;99.90
23160;DHT22;11748;50.844;4.396;2023-01-15T15:44:38;7.70;99.90
23160;DHT22;11748;50.844;4.396;2023-01-15T15:47:25;7.70;99.90
23160;DHT22;11748;50.844;4.396;2023-01-15T15:52:51;7.60;99.90
23160;DHT22;11748;50.844;4.396;2023-01-15T15:55:18;7.60;99.90
23160;DHT22;11748;50.844;4.396;2023-01-15T15:57:47;7.70;99.90
23160;DHT22;11748;50.844;4.396;2023-01-15T16:00:29;7.50;99.90
23160;DHT22;11748;50.844;4.396;2023-01-15T16:02:56;7.50;99.90
23160;DHT22;11748;50.844;4.396;2023-01-15T16:05:27;7.50;99.90
23160;DHT22;11748;50.844;4.396;2023-01-15T16:08:19;7.60;99.90
23160;DHT22;11748;50.844;4.396;2023-01-15T16:10:53;7.60;99.90
23160;DHT22;11748;50.844;4.396;2023-01-15T16:15:59;7.30;99.90
23160;DHT22;11748;50.844;4.396;2023-01-15T16:18:33;7.30;99.90
23160;DHT22;11748;50.844;4.396;2023-01-15T16:20:59;7.20;99.90
23160;DHT22;11748;50.844;4.396;2023-01-15T16:23:29;7.10;99.90
23160;DHT22;11748;50.844;4.396;2023-01-15T16:28:38;7.00;99.90
23160;DHT22;11748;50.844;4.396;2023-01-15T16:31:08;7.00;99.90
23160;DHT22;11748;50.844;4.396;2023-01-15T16:33:38;7.00;99.90
23160;DHT22;11748;50.844;4.396;2023-01-15T16:36:04;7.10;99.90
23160;DHT22;11748;50.844;4.396;2023-01-15T16:38:40;7.00;99.90
23160;DHT22;11748;50.844;4.396;2023-01-15T16:41:14;7.00;99.90
23160;DHT22;11748;50.844;4.396;2023-01-15T16:43:53;7.00;99.90
23160;DHT22;11748;50.844;4.396;2023-01-15T16:46:20;7.00;99.90
23160;DHT22;11748;50.844;4.396;2023-01-15T16:48:47;7.00;99.90
23160;DHT22;11748;50.844;4.396;2023-01-15T16:51:30;7.00;99.90
23160;DHT22;11748;50.844;4.396;2023-01-15T16:53:57;6.90;99.90
23160;DHT22;11748;50.844;4.396;2023-01-15T16:56:52;7.00;99.90
23160;DHT22;11748;50.844;4.396;2023-01-15T17:02:15;6.90;99.90
23160;DHT22;11748;50.844;4.396;2023-01-15T17:04:45;7.00;99.90
23160;DHT22;11748;50.844;4.396;2023-01-15T17:47:34;7.30;99.90
23160;DHT22;11748;50.844;4.396;2023-01-15T17:50:00;7.40;99.90
23160;DHT22;11748;50.844;4.396;2023-01-15T17:52:28;7.50;99.90
23160;DHT22;11748;50.844;4.396;2023-01-15T17:54:56;7.50;99.90
23160;DHT22;11748;50.844;4.396;2023-01-15T17:57:48;7.60;99.90
23160;DHT22;11748;50.844;4.396;2023-01-15T18:00:33;7.60;99.90
23160;DHT22;11748;50.844;4.396;2023-01-15T18:03:19;7.70;99.90
23160;DHT22;11748;50.844;4.396;2023-01-15T18:06:09;7.70;99.90
23160;DHT22;11748;50.844;4.396;2023-01-15T18:08:36;7.60;99.90
23160;DHT22;11748;50.844;4.396;2023-01-15T18:11:03;7.70;99.90
23160;DHT22;11748;50.844;4.396;2023-01-15T18:13:29;7.80;99.90
23160;DHT22;11748;50.844;4.396;2023-01-15T18:15:55;7.90;99.90
23160;DHT22;11748;50.844;4.396;2023-01-15T18:18:20;7.90;99.90
23160;DHT22;11748;50.844;4.396;2023-01-15T18:20:46;8.00;99.90
23160;DHT22;11748;50.844;4.396;2023-01-15T18:23:12;8.00;99.90
23160;DHT22;11748;50.844;4.396;2023-01-15T18:25:37;8.00;99.90
23160;DHT22;11748;50.844;4.396;2023-01-15T18:28:11;8.00;99.90
23160;DHT22;11748;50.844;4.396;2023-01-15T18:30:37;8.00;99.90
23160;DHT22;11748;50.844;4.396;2023-01-15T18:33:03;7.80;99.90
23160;DHT22;11748;50.844;4.396;2023-01-15T18:35:29;7.90;99.90
23160;DHT22;11748;50.844;4.396;2023-01-15T18:37:55;7.90;99.90
23160;DHT22;11748;50.844;4.396;2023-01-15T18:40:21;7.90;99.90
23160;DHT22;11748;50.844;4.396;2023-01-15T18:42:51;7.90;99.90
23160;DHT22;11748;50.844;4.396;2023-01-15T18:45:36;7.90;99.90
23160;DHT22;11748;50.844;4.396;2023-01-15T18:48:20;7.90;99.90
23160;DHT22;11748;50.844;4.396;2023-01-15T18:50:45;7.90;99.90
23160;DHT22;11748;50.844;4.396;2023-01-15T18:53:13;7.90;99.90
23160;DHT22;11748;50.844;4.396;2023-01-15T18:55:39;8.00;99.90
23160;DHT22;11748;50.844;4.396;2023-01-15T18:58:05;7.90;99.90
23160;DHT22;11748;50.844;4.396;2023-01-15T19:00:30;7.60;99.90
23160;DHT22;11748;50.844;4.396;2023-01-15T19:02:56;7.40;99.90
23160;DHT22;11748;50.844;4.396;2023-01-15T19:05:22;7.50;99.90
23160;DHT22;11748;50.844;4.396;2023-01-15T19:07:48;7.60;99.90
23160;DHT22;11748;50.844;4.396;2023-01-15T19:10:15;7.60;99.90
23160;DHT22;11748;50.844;4.396;2023-01-15T19:12:41;7.40;99.90
23160;DHT22;11748;50.844;4.396;2023-01-15T19:15:11;7.40;99.90
23160;DHT22;11748;50.844;4.396;2023-01-15T19:17:56;7.40;99.90
23160;DHT22;11748;50.844;4.396;2023-01-15T19:20:40;7.60;99.90
23160;DHT22;11748;50.844;4.396;2023-01-15T19:23:06;7.70;99.90
23160;DHT22;11748;50.844;4.396;2023-01-15T19:25:39;7.70;99.90